createdAt,value
2019-05-23T00:00:04.384Z,5.58
2019-05-23T00:02:53.394Z,5.20
2019-05-23T00:05:43.051Z,4.42
2019-05-23T00:08:32.308Z,6.75
2019-05-23T00:11:22.378Z,4.53
2019-05-23T00:14:20.338Z,3.83
2019-05-23T00:16:51.802Z,5.25
2019-05-23T00:19:21.898Z,6.42
2019-05-23T00:21:53.035Z,6.53
2019-05-23T00:24:24.051Z,5.20
2019-05-23T00:26:56.387Z,4.67
2019-05-23T00:29:27.290Z,4.78
2019-05-23T00:31:58.594Z,5.57
2019-05-23T00:34:31.714Z,10.88
2019-05-23T00:37:02.572Z,6.10
2019-05-23T00:39:32.275Z,4.40
2019-05-23T00:42:06.385Z,6.28
2019-05-23T00:44:38.065Z,6.20
2019-05-23T00:47:09.511Z,4.63
2019-05-23T00:49:39.214Z,4.58
2019-05-23T00:52:10.047Z,4.40
2019-05-23T00:54:39.759Z,4.40
2019-05-23T00:57:10.227Z,5.17
2019-05-23T00:59:40.138Z,5.92
2019-05-23T01:02:11.374Z,5.50
2019-05-23T01:04:42.275Z,4.33
2019-05-23T01:07:13.920Z,4.53
2019-05-23T01:09:44.498Z,4.37
2019-05-23T01:12:22.419Z,8.23
2019-05-23T01:14:54.021Z,4.53
2019-05-23T01:17:25.954Z,6.75
2019-05-23T01:19:57.239Z,5.85
2019-05-23T01:22:26.943Z,9.38
2019-05-23T01:24:56.650Z,4.33
2019-05-23T01:27:26.458Z,4.35
2019-05-23T01:29:58.267Z,4.60
2019-05-23T01:32:42.194Z,5.22
2019-05-23T01:35:13.614Z,4.90
2019-05-23T01:37:45.261Z,5.15
2019-05-23T01:42:46.759Z,4.50
2019-05-23T01:45:17.679Z,4.25
2019-05-23T01:47:48.983Z,4.97
2019-05-23T01:50:21.630Z,5.60
2019-05-23T01:52:51.762Z,5.00
2019-05-23T01:55:21.770Z,6.03
2019-05-23T01:57:51.482Z,6.28
2019-05-23T02:00:21.599Z,5.05
2019-05-23T02:02:51.334Z,3.95
2019-05-23T02:05:21.560Z,5.28
2019-05-23T02:07:51.320Z,5.30
2019-05-23T02:10:21.314Z,3.92
2019-05-23T02:12:51.572Z,4.05
2019-05-23T02:15:22.176Z,3.98
2019-05-23T02:17:52.526Z,4.60
2019-05-23T02:20:23.523Z,4.58
2019-05-23T02:22:54.943Z,6.95
2019-05-23T02:25:25.151Z,5.58
2019-05-23T02:27:55.698Z,5.78
2019-05-23T02:30:35.819Z,6.08
2019-05-23T02:32:57.575Z,4.08
2019-05-23T02:35:27.578Z,6.00
2019-05-23T02:38:12.466Z,4.92
2019-05-23T02:40:59.996Z,6.58
2019-05-23T02:43:36.739Z,3.47
2019-05-23T02:46:23.679Z,4.15
2019-05-23T02:48:55.995Z,5.10
2019-05-23T02:51:29.566Z,4.65
2019-05-23T02:54:01.908Z,3.70
2019-05-23T02:56:37.314Z,3.33
2019-05-23T02:59:17.613Z,5.05
2019-05-23T03:02:20.508Z,2.52
2019-05-23T03:04:52.437Z,3.27
2019-05-23T03:07:24.854Z,2.90
2019-05-23T03:09:55.098Z,2.92
2019-05-23T03:12:26.386Z,3.95
2019-05-23T03:14:59.003Z,7.55
2019-05-23T03:17:32.777Z,3.72
2019-05-23T03:20:06.003Z,4.97
2019-05-23T03:22:41.240Z,3.85
2019-05-23T03:25:35.517Z,3.50
2019-05-23T03:28:08.434Z,4.33
2019-05-23T03:30:40.174Z,5.95
2019-05-23T03:35:56.348Z,5.05
2019-05-23T03:38:27.852Z,6.40
2019-05-23T03:40:58.313Z,4.35
2019-05-23T03:43:28.211Z,4.42
2019-05-23T03:46:00.948Z,4.53
2019-05-23T03:48:31.252Z,4.30
2019-05-23T03:51:02.793Z,3.55
2019-05-23T03:53:32.490Z,4.53
2019-05-23T03:56:04.028Z,4.08
2019-05-23T03:58:34.351Z,3.40
2019-05-23T04:01:06.698Z,5.45
2019-05-23T04:03:39.999Z,5.45
2019-05-23T04:06:09.518Z,5.15
2019-05-23T04:08:39.303Z,3.40
2019-05-23T04:11:09.635Z,5.90
2019-05-23T04:13:39.535Z,3.20
2019-05-23T04:16:09.320Z,3.80
2019-05-23T04:18:39.028Z,5.45
2019-05-23T04:21:09.282Z,5.22
2019-05-23T04:23:39.293Z,3.87
2019-05-23T04:26:09.320Z,3.30
2019-05-23T04:28:39.140Z,4.60
2019-05-23T04:31:12.944Z,4.62
2019-05-23T04:33:40.948Z,7.33
2019-05-23T04:36:10.899Z,3.95
2019-05-23T04:38:40.720Z,3.08
2019-05-23T04:41:10.634Z,5.83
2019-05-23T04:43:40.452Z,4.67
2019-05-23T04:46:10.170Z,5.22
2019-05-23T04:48:39.939Z,3.47
2019-05-23T04:51:09.849Z,2.95
2019-05-23T04:53:39.564Z,4.42
2019-05-23T04:56:10.482Z,4.72
2019-05-23T04:58:40.699Z,4.03
2019-05-23T05:01:10.747Z,3.33
2019-05-23T05:03:41.851Z,4.47
2019-05-23T05:06:11.910Z,3.37
2019-05-23T05:08:41.621Z,3.42
2019-05-23T05:11:11.747Z,4.20
2019-05-23T05:13:42.270Z,4.58
2019-05-23T05:16:12.149Z,3.20
2019-05-23T05:18:41.851Z,4.78
2019-05-23T05:21:11.663Z,3.87
2019-05-23T05:23:41.365Z,4.35
2019-05-23T05:26:16.778Z,4.25
2019-05-23T05:28:46.831Z,6.95
2019-05-23T05:31:16.534Z,3.40
2019-05-23T05:33:46.255Z,3.70
2019-05-23T05:36:16.182Z,7.95
2019-05-23T05:38:45.983Z,3.98
2019-05-23T05:41:15.750Z,5.33
2019-05-23T05:43:45.455Z,3.90
2019-05-23T05:46:20.446Z,3.70
2019-05-23T05:48:50.680Z,4.25
2019-05-23T05:51:20.797Z,4.12
2019-05-23T05:53:50.625Z,4.53
2019-05-23T05:56:20.318Z,4.60
2019-05-23T05:58:50.435Z,4.00
2019-05-23T06:01:33.226Z,4.20
2019-05-23T06:03:54.255Z,3.70
2019-05-23T06:06:25.567Z,4.65
2019-05-23T06:08:56.974Z,4.08
2019-05-23T06:11:26.737Z,8.53
2019-05-23T06:13:56.591Z,4.62
2019-05-23T06:16:26.740Z,3.72
2019-05-23T06:18:57.000Z,7.30
2019-05-23T06:21:28.463Z,5.05
2019-05-23T06:23:59.586Z,4.05
2019-05-23T06:26:29.330Z,4.33
2019-05-23T06:28:59.051Z,4.08
2019-05-23T06:31:29.269Z,5.42
2019-05-23T06:33:58.977Z,3.85
2019-05-23T06:36:29.816Z,4.35
2019-05-23T06:38:59.730Z,4.27
2019-05-23T06:41:29.566Z,3.50
2019-05-23T06:43:59.290Z,3.62
2019-05-23T06:46:29.400Z,4.30
2019-05-23T06:48:59.147Z,4.33
2019-05-23T06:51:29.155Z,5.00
2019-05-23T06:53:59.563Z,5.22
2019-05-23T06:56:29.316Z,6.42
2019-05-23T06:59:00.029Z,9.47
2019-05-23T07:01:29.912Z,10.38
2019-05-23T07:04:00.386Z,10.93
2019-05-23T07:06:30.241Z,12.78
2019-05-23T07:08:59.982Z,11.53
2019-05-23T07:11:29.731Z,10.78
2019-05-23T07:13:59.649Z,8.75
2019-05-23T07:16:29.453Z,7.78
2019-05-23T07:18:59.305Z,7.75
2019-05-23T07:21:29.418Z,6.22
2019-05-23T07:23:59.178Z,7.20
2019-05-23T07:26:29.684Z,11.73
2019-05-23T07:28:59.454Z,8.60
2019-05-23T07:31:31.301Z,8.13
2019-05-23T07:34:02.497Z,12.55
2019-05-23T07:36:32.079Z,8.70
2019-05-23T07:39:01.935Z,10.85
2019-05-23T07:41:32.543Z,12.00
2019-05-23T07:44:02.913Z,10.23
2019-05-23T07:46:32.667Z,11.05
2019-05-23T07:49:03.469Z,10.97
2019-05-23T07:51:33.170Z,9.83
2019-05-23T07:54:04.885Z,8.45
2019-05-23T07:59:05.315Z,11.85
2019-05-23T08:01:36.993Z,11.08
2019-05-23T08:06:38.138Z,10.70
2019-05-23T08:09:09.680Z,10.43
2019-05-23T08:11:40.190Z,8.60
2019-05-23T08:14:12.207Z,12.00
2019-05-23T08:16:42.112Z,12.68
2019-05-23T08:19:18.548Z,10.28
2019-05-23T08:21:43.563Z,6.08
2019-05-23T08:24:13.421Z,6.95
2019-05-23T08:26:45.323Z,3.20
2019-05-23T08:29:26.012Z,2.35
2019-05-23T08:31:46.511Z,2.92
2019-05-23T08:34:16.251Z,3.35
2019-05-23T08:36:46.070Z,3.40
2019-05-23T08:39:16.274Z,3.40
2019-05-23T08:41:46.474Z,3.33
2019-05-23T08:44:16.440Z,3.33
2019-05-23T08:46:47.042Z,5.47
2019-05-23T08:49:17.188Z,8.00
2019-05-23T08:51:46.888Z,9.00
2019-05-23T08:54:16.599Z,11.53
2019-05-23T08:56:46.245Z,11.53
2019-05-23T08:59:16.599Z,11.53
2019-05-23T09:01:46.424Z,12.23
2019-05-23T09:04:16.679Z,10.45
2019-05-23T09:06:46.404Z,11.05
2019-05-23T09:09:28.966Z,13.88
2019-05-23T09:11:48.475Z,14.80
2019-05-23T09:14:19.534Z,8.58
2019-05-23T09:16:49.255Z,7.95
2019-05-23T09:19:19.202Z,7.65
2019-05-23T09:21:49.019Z,7.83
2019-05-23T09:24:18.719Z,7.20
2019-05-23T09:26:49.330Z,8.78
2019-05-23T09:29:19.048Z,8.08
2019-05-23T09:31:49.184Z,10.05
2019-05-23T09:34:19.488Z,8.93
2019-05-23T09:36:49.227Z,8.40
2019-05-23T09:39:20.606Z,11.18
2019-05-23T09:41:50.362Z,7.45
2019-05-23T09:44:21.196Z,11.17
2019-05-23T09:46:50.947Z,9.73
2019-05-23T09:49:20.650Z,8.98
2019-05-23T09:51:53.128Z,9.05
2019-05-23T09:54:23.417Z,13.35
2019-05-23T09:56:53.174Z,11.60
2019-05-23T09:59:22.957Z,12.60
2019-05-23T10:01:52.637Z,11.25
2019-05-23T10:04:22.448Z,10.58
2019-05-23T10:06:52.166Z,9.08
2019-05-23T10:09:21.925Z,9.55
2019-05-23T10:11:51.831Z,10.55
2019-05-23T10:14:23.154Z,11.10
2019-05-23T10:16:52.858Z,8.95
2019-05-23T10:19:22.579Z,7.40
2019-05-23T10:21:53.302Z,9.05
2019-05-23T10:24:23.008Z,12.58
2019-05-23T10:26:52.859Z,10.75
2019-05-23T10:29:23.783Z,10.72
2019-05-23T10:31:53.530Z,11.85
2019-05-23T10:34:23.518Z,11.97
2019-05-23T10:36:53.498Z,16.25
2019-05-23T10:39:23.214Z,13.95
2019-05-23T10:41:53.976Z,10.58
2019-05-23T10:44:23.691Z,15.03
2019-05-23T10:46:53.406Z,8.50
2019-05-23T10:49:23.320Z,9.73
2019-05-23T10:51:53.023Z,10.23
2019-05-23T10:54:22.781Z,9.50
2019-05-23T10:56:53.495Z,8.83
2019-05-23T10:59:23.247Z,10.93
2019-05-23T11:01:52.959Z,13.32
2019-05-23T11:04:22.691Z,10.20
2019-05-23T11:06:52.508Z,9.18
2019-05-23T11:09:36.735Z,14.05
2019-05-23T11:11:55.015Z,10.50
2019-05-23T11:14:24.801Z,12.63
2019-05-23T11:16:54.743Z,15.50
2019-05-23T11:19:24.490Z,15.72
2019-05-23T11:21:54.406Z,16.82
2019-05-23T11:24:24.135Z,19.25
2019-05-23T11:26:53.900Z,21.70
2019-05-23T11:29:27.081Z,32.25
2019-05-23T11:31:55.453Z,20.08
2019-05-23T11:34:25.800Z,23.77
2019-05-23T11:36:55.755Z,19.37
2019-05-23T11:39:25.698Z,17.52
2019-05-23T11:41:55.675Z,17.57
2019-05-23T11:44:25.392Z,21.40
2019-05-23T11:46:55.639Z,18.87
2019-05-23T11:49:25.291Z,23.50
2019-05-23T11:51:55.311Z,18.20
2019-05-23T11:54:25.460Z,21.10
2019-05-23T11:56:55.918Z,19.98
2019-05-23T11:59:26.120Z,17.50
2019-05-23T12:01:57.449Z,17.82
2019-05-23T12:04:27.373Z,17.62
2019-05-23T12:07:07.401Z,18.70
2019-05-23T12:09:37.124Z,15.60
2019-05-23T12:12:06.870Z,19.00
2019-05-23T12:14:37.592Z,18.02
2019-05-23T12:17:07.388Z,18.35
2019-05-23T12:19:37.106Z,18.12
2019-05-23T12:22:06.875Z,19.17
2019-05-23T12:24:36.569Z,30.00
2019-05-23T12:27:06.296Z,16.97
2019-05-23T12:29:36.113Z,16.48
2019-05-23T12:32:07.722Z,18.45
2019-05-23T12:34:37.508Z,16.17
2019-05-23T12:37:18.870Z,21.48
2019-05-23T12:39:40.417Z,21.75
2019-05-23T12:42:10.153Z,25.05
2019-05-23T12:44:39.922Z,23.02
2019-05-23T12:47:11.214Z,25.17
2019-05-23T12:49:42.572Z,26.40
2019-05-23T12:52:12.474Z,25.48
2019-05-23T12:54:42.391Z,19.67
2019-05-23T12:57:12.941Z,25.43
2019-05-23T12:59:42.651Z,24.63
2019-05-23T13:02:13.978Z,22.45
2019-05-23T13:04:44.274Z,25.45
2019-05-23T13:07:14.204Z,24.12
2019-05-23T13:09:44.021Z,28.62
2019-05-23T13:12:16.434Z,23.62
2019-05-23T13:14:45.088Z,28.47
2019-05-23T13:17:14.799Z,24.02
2019-05-23T13:19:44.853Z,23.47
2019-05-23T13:22:14.779Z,25.02
2019-05-23T13:24:52.495Z,22.87
2019-05-23T13:27:16.150Z,22.70
2019-05-23T13:29:45.859Z,27.85
2019-05-23T13:32:15.903Z,20.75
2019-05-23T13:34:45.617Z,23.70
2019-05-23T13:37:17.114Z,22.07
2019-05-23T13:39:46.788Z,23.60
2019-05-23T13:42:16.509Z,42.62
2019-05-23T13:44:46.463Z,21.55
2019-05-23T13:47:16.181Z,24.52
2019-05-23T13:49:45.930Z,30.48
2019-05-23T13:52:15.682Z,39.58
2019-05-23T13:54:45.398Z,29.02
2019-05-23T13:57:15.708Z,30.57
2019-05-23T13:59:45.743Z,29.05
2019-05-23T14:02:16.002Z,32.03
2019-05-23T14:04:45.719Z,36.10
2019-05-23T14:07:17.363Z,36.15
2019-05-23T14:12:23.168Z,22.80
2019-05-23T14:14:48.321Z,29.35
2019-05-23T14:17:28.922Z,30.25
2019-05-23T14:19:58.843Z,30.32
2019-05-23T14:22:29.166Z,35.23
2019-05-23T14:24:58.933Z,51.50
2019-05-23T14:27:39.396Z,37.28
2019-05-23T14:30:14.608Z,32.83
2019-05-23T14:32:55.404Z,30.68
2019-05-23T14:35:27.232Z,32.73
2019-05-23T14:37:58.511Z,28.32
2019-05-23T14:40:28.463Z,35.35
2019-05-23T14:43:02.569Z,26.48
2019-05-23T14:45:43.967Z,26.30
2019-05-23T14:48:31.678Z,26.87
2019-05-23T14:51:18.945Z,28.87
2019-05-23T14:53:53.446Z,24.25
2019-05-23T14:56:24.756Z,20.27
2019-05-23T14:58:55.479Z,23.32
2019-05-23T15:01:26.899Z,23.85
2019-05-23T15:03:56.614Z,20.68
2019-05-23T15:06:26.426Z,14.87
2019-05-23T15:08:56.267Z,15.93
2019-05-23T15:11:26.007Z,18.90
2019-05-23T15:13:55.986Z,23.35
2019-05-23T15:16:26.117Z,22.05
2019-05-23T15:18:55.852Z,24.90
2019-05-23T15:21:25.556Z,18.60
2019-05-23T15:23:55.291Z,16.10
2019-05-23T15:26:24.996Z,20.12
2019-05-23T15:28:55.031Z,16.50
2019-05-23T15:31:24.765Z,18.27
2019-05-23T15:33:54.500Z,16.37
2019-05-23T15:36:24.252Z,21.87
2019-05-23T15:39:08.848Z,20.50
2019-05-23T15:41:28.478Z,23.00
2019-05-23T15:43:58.236Z,25.92
2019-05-23T15:46:27.956Z,25.82
2019-05-23T15:48:57.691Z,19.27
2019-05-23T15:51:37.915Z,20.15
2019-05-23T15:54:09.226Z,17.65
2019-05-23T15:56:46.418Z,28.32
2019-05-23T15:59:20.754Z,34.58
2019-05-23T16:01:54.847Z,38.65
2019-05-23T16:04:25.413Z,33.80
2019-05-23T16:06:56.803Z,19.65
2019-05-23T16:09:31.108Z,26.60
2019-05-23T16:12:00.963Z,19.55
2019-05-23T16:14:31.328Z,22.73
2019-05-23T16:17:01.038Z,17.80
2019-05-23T16:19:30.790Z,17.07
2019-05-23T16:22:11.632Z,16.32
2019-05-23T16:24:41.378Z,26.00
2019-05-23T16:27:11.885Z,24.37
2019-05-23T16:29:41.673Z,22.35
2019-05-23T16:32:11.382Z,26.40
2019-05-23T16:34:41.232Z,21.57
2019-05-23T16:37:11.047Z,18.15
2019-05-23T16:39:47.414Z,15.50
2019-05-23T16:42:13.636Z,17.45
2019-05-23T16:44:43.407Z,16.50
2019-05-23T16:47:13.211Z,16.02
2019-05-23T16:49:43.226Z,22.27
2019-05-23T16:52:12.963Z,31.82
2019-05-23T16:54:44.751Z,37.40
2019-05-23T16:57:31.030Z,33.50
2019-05-23T17:00:02.374Z,40.70
2019-05-23T17:02:38.033Z,36.30
2019-05-23T17:05:16.151Z,22.75
2019-05-23T17:07:46.016Z,36.15
2019-05-23T17:10:32.466Z,21.93
2019-05-23T17:13:09.986Z,17.17
2019-05-23T17:15:50.511Z,18.02
2019-05-23T17:18:24.287Z,18.32
2019-05-23T17:20:55.607Z,14.83
2019-05-23T17:23:29.872Z,16.42
2019-05-23T17:26:02.294Z,16.27
2019-05-23T17:28:36.501Z,17.15
2019-05-23T17:31:08.030Z,21.05
2019-05-23T17:33:38.242Z,36.17
2019-05-23T17:36:07.994Z,66.67
2019-05-23T17:38:37.806Z,48.87
2019-05-23T17:41:07.522Z,22.73
2019-05-23T17:43:37.339Z,17.55
2019-05-23T17:46:07.090Z,14.53
2019-05-23T17:48:38.483Z,15.95
2019-05-23T17:51:08.242Z,18.17
2019-05-23T17:53:37.966Z,13.00
2019-05-23T17:56:08.706Z,16.80
2019-05-23T17:58:38.427Z,10.40
2019-05-23T18:01:08.608Z,16.67
2019-05-23T18:03:38.405Z,13.53
2019-05-23T18:06:08.495Z,13.48
2019-05-23T18:08:39.071Z,11.75
2019-05-23T18:11:08.922Z,14.35
2019-05-23T18:13:39.151Z,12.70
2019-05-23T18:16:09.194Z,9.73
2019-05-23T18:18:39.514Z,9.88
2019-05-23T18:21:10.478Z,11.08
2019-05-23T18:23:40.888Z,13.38
2019-05-23T18:26:11.023Z,12.55
2019-05-23T18:28:40.734Z,12.20
2019-05-23T18:31:18.266Z,14.07
2019-05-23T18:33:48.586Z,12.45
2019-05-23T18:36:19.358Z,11.12
2019-05-23T18:38:49.817Z,10.63
2019-05-23T18:41:19.614Z,12.45
2019-05-23T18:43:50.611Z,14.05
2019-05-23T18:46:21.935Z,13.88
2019-05-23T18:48:51.751Z,9.33
2019-05-23T18:51:21.463Z,11.88
2019-05-23T18:53:51.291Z,8.10
2019-05-23T18:56:21.003Z,10.20
2019-05-23T18:58:50.960Z,12.70
2019-05-23T19:01:22.513Z,10.93
2019-05-23T19:03:52.365Z,11.48
2019-05-23T19:06:23.371Z,12.30
2019-05-23T19:08:54.623Z,8.68
2019-05-23T19:11:24.824Z,13.50
2019-05-23T19:13:54.679Z,10.55
2019-05-23T19:16:24.686Z,11.20
2019-05-23T19:18:54.442Z,18.00
2019-05-23T19:21:24.870Z,19.12
2019-05-23T19:23:54.630Z,14.85
2019-05-23T19:26:24.840Z,14.33
2019-05-23T19:28:54.882Z,14.28
2019-05-23T19:31:25.114Z,14.53
2019-05-23T19:33:55.129Z,12.53
2019-05-23T19:36:24.871Z,15.05
2019-05-23T19:38:54.594Z,13.58
2019-05-23T19:41:37.095Z,14.10
2019-05-23T19:43:55.959Z,11.35
2019-05-23T19:46:25.656Z,15.43
2019-05-23T19:48:58.008Z,15.55
2019-05-23T19:51:27.924Z,13.93
2019-05-23T19:53:58.042Z,13.13
2019-05-23T19:56:27.987Z,20.90
2019-05-23T19:58:57.846Z,15.88
2019-05-23T20:01:32.007Z,16.82
2019-05-23T20:04:00.559Z,15.03
2019-05-23T20:06:31.179Z,18.82
2019-05-23T20:09:01.734Z,13.48
2019-05-23T20:11:33.099Z,12.18
2019-05-23T20:14:02.964Z,12.93
2019-05-23T20:16:32.680Z,10.20
2019-05-23T20:19:03.618Z,14.05
2019-05-23T20:21:33.838Z,15.50
2019-05-23T20:24:03.570Z,17.90
2019-05-23T20:26:33.287Z,15.98
2019-05-23T20:29:03.560Z,12.00
2019-05-23T20:31:33.565Z,15.00
2019-05-23T20:34:06.452Z,17.17
2019-05-23T20:36:34.638Z,13.68
2019-05-23T20:39:06.919Z,12.10
2019-05-23T20:41:37.378Z,18.02
2019-05-23T20:44:08.188Z,11.78
2019-05-23T20:46:38.612Z,11.08
2019-05-23T20:49:08.366Z,16.77
2019-05-23T20:51:38.114Z,13.58
2019-05-23T20:54:07.826Z,8.80
2019-05-23T20:56:37.937Z,13.15
2019-05-23T20:59:08.448Z,12.73
2019-05-23T21:01:39.724Z,14.40
2019-05-23T21:04:09.486Z,12.68
2019-05-23T21:06:39.195Z,15.00
2019-05-23T21:09:09.253Z,14.23
2019-05-23T21:11:38.952Z,17.32
2019-05-23T21:14:08.666Z,14.68
2019-05-23T21:16:38.379Z,14.40
2019-05-23T21:19:08.106Z,13.93
2019-05-23T21:21:37.870Z,18.00
2019-05-23T21:24:07.639Z,12.45
2019-05-23T21:26:37.405Z,14.90
2019-05-23T21:29:07.211Z,9.38
2019-05-23T21:31:37.050Z,15.30
2019-05-23T21:34:06.762Z,15.72
2019-05-23T21:36:36.762Z,17.82
2019-05-23T21:39:08.800Z,14.73
2019-05-23T21:41:39.712Z,12.33
2019-05-23T21:44:09.458Z,12.10
2019-05-23T21:46:39.162Z,14.10
2019-05-23T21:49:08.913Z,15.20
2019-05-23T21:51:38.633Z,13.18
2019-05-23T21:54:08.351Z,12.93
2019-05-23T21:56:38.062Z,11.20
2019-05-23T21:59:07.782Z,14.50
2019-05-23T22:01:39.431Z,16.80
2019-05-23T22:04:20.068Z,7.70
2019-05-23T22:07:00.045Z,13.58
2019-05-23T22:09:29.865Z,12.70
2019-05-23T22:12:06.127Z,8.98
2019-05-23T22:14:35.942Z,8.93
2019-05-23T22:17:05.658Z,7.80
2019-05-23T22:19:35.370Z,10.15
2019-05-23T22:22:05.494Z,10.13
2019-05-23T22:24:35.665Z,8.63
2019-05-23T22:27:07.019Z,17.65
2019-05-23T22:29:36.799Z,10.93
2019-05-23T22:32:07.887Z,9.30
2019-05-23T22:34:45.263Z,10.08
2019-05-23T22:37:16.542Z,10.60
2019-05-23T22:39:46.299Z,8.50
2019-05-23T22:42:16.705Z,13.50
2019-05-23T22:44:46.462Z,15.18
2019-05-23T22:47:16.186Z,17.00
2019-05-23T22:49:45.938Z,17.00
2019-05-23T22:52:15.572Z,9.55
2019-05-23T22:54:45.294Z,13.35
2019-05-23T22:57:15.018Z,9.33
2019-05-23T22:59:44.734Z,16.82
2019-05-23T23:02:16.030Z,18.75
2019-05-23T23:04:45.786Z,14.50
2019-05-23T23:07:16.414Z,13.53
2019-05-23T23:09:46.582Z,13.62
2019-05-23T23:12:19.614Z,11.83
2019-05-23T23:14:49.571Z,14.03
2019-05-23T23:17:21.086Z,16.60
2019-05-23T23:19:50.780Z,18.07
2019-05-23T23:22:20.430Z,15.63
2019-05-23T23:24:50.144Z,13.18
2019-05-23T23:27:20.154Z,13.80
2019-05-23T23:29:49.997Z,16.95
2019-05-23T23:32:19.715Z,11.57
2019-05-23T23:34:49.435Z,14.38
2019-05-23T23:37:19.206Z,13.18
2019-05-23T23:39:48.946Z,13.88
2019-05-23T23:42:18.718Z,15.70
2019-05-23T23:44:47.687Z,16.60
2019-05-23T23:47:35.531Z,20.45
2019-05-23T23:50:24.410Z,18.02
2019-05-23T23:53:11.856Z,11.90
2019-05-23T23:55:59.717Z,12.40
2019-05-23T23:58:28.726Z,11.75
